createdAt,value
2018-08-02T00:00:55.727Z,91.60
2018-08-02T00:03:22.996Z,92.03
2018-08-02T00:05:50.298Z,92.26
2018-08-02T00:08:17.663Z,94.21
2018-08-02T00:10:44.908Z,94.88
2018-08-02T00:13:12.154Z,95.10
2018-08-02T00:15:39.454Z,93.87
2018-08-02T00:18:06.715Z,93.10
2018-08-02T00:20:34.067Z,89.75
2018-08-02T00:23:01.348Z,89.74
2018-08-02T00:25:28.665Z,90.50
2018-08-02T00:27:55.912Z,89.04
2018-08-02T00:30:23.291Z,89.14
2018-08-02T00:32:50.627Z,89.90
2018-08-02T00:35:17.847Z,89.82
2018-08-02T00:37:45.139Z,86.29
2018-08-02T00:40:12.459Z,87.57
2018-08-02T00:42:39.749Z,88.40
2018-08-02T00:45:07.030Z,88.66
2018-08-02T00:47:34.325Z,89.29
2018-08-02T00:50:01.599Z,89.75
2018-08-02T00:52:28.842Z,90.56
2018-08-02T00:54:56.110Z,91.29
2018-08-02T00:57:23.448Z,91.04
2018-08-02T00:59:50.759Z,91.54
2018-08-02T01:02:18.078Z,91.95
2018-08-02T01:04:45.603Z,92.32
2018-08-02T01:07:12.994Z,92.32
2018-08-02T01:09:40.294Z,93.39
2018-08-02T01:12:07.576Z,94.04
2018-08-02T01:14:34.818Z,93.94
2018-08-02T01:17:02.129Z,93.86
2018-08-02T01:19:29.409Z,95.43
2018-08-02T01:21:56.687Z,95.59
2018-08-02T01:24:23.979Z,94.50
2018-08-02T01:26:51.301Z,93.40
2018-08-02T01:29:18.661Z,93.56
2018-08-02T01:31:45.918Z,93.10
2018-08-02T01:34:13.215Z,93.07
2018-08-02T01:36:40.502Z,92.29
2018-08-02T01:39:09.393Z,93.52
2018-08-02T01:41:36.660Z,93.55
2018-08-02T01:44:15.408Z,93.65
2018-08-02T01:46:42.715Z,94.30
2018-08-02T01:49:10.165Z,94.62
2018-08-02T01:51:37.718Z,96.08
2018-08-02T01:54:04.982Z,94.53
2018-08-02T01:56:32.229Z,94.90
2018-08-02T01:58:59.522Z,93.96
2018-08-02T02:01:26.818Z,93.58
2018-08-02T02:03:54.088Z,93.43
2018-08-02T02:06:21.418Z,94.25
2018-08-02T02:08:48.695Z,94.94
2018-08-02T02:11:15.965Z,94.25
2018-08-02T02:13:43.256Z,94.57
2018-08-02T02:16:10.533Z,94.71
2018-08-02T02:18:37.907Z,94.63
2018-08-02T02:21:05.200Z,94.65
2018-08-02T02:23:32.493Z,94.17
2018-08-02T02:25:59.891Z,93.56
2018-08-02T02:28:27.152Z,93.47
2018-08-02T02:30:54.569Z,92.97
2018-08-02T02:33:21.855Z,92.18
2018-08-02T02:35:49.112Z,91.78
2018-08-02T02:38:16.383Z,92.63
2018-08-02T02:40:43.724Z,93.09
2018-08-02T02:43:11.010Z,93.25
2018-08-02T02:45:38.364Z,94.35
2018-08-02T02:48:05.643Z,94.16
2018-08-02T02:50:32.929Z,94.37
2018-08-02T02:53:00.220Z,95.07
2018-08-02T02:55:27.511Z,94.51
2018-08-02T02:57:54.852Z,94.59
2018-08-02T03:00:22.121Z,94.63
2018-08-02T03:02:49.414Z,94.59
2018-08-02T03:05:16.792Z,94.86
2018-08-02T03:07:44.120Z,94.99
2018-08-02T03:10:11.444Z,95.36
2018-08-02T03:12:38.773Z,95.54
2018-08-02T03:15:06.230Z,94.70
2018-08-02T03:17:33.486Z,95.21
2018-08-02T03:20:00.813Z,95.21
2018-08-02T03:22:28.137Z,95.20
2018-08-02T03:24:55.401Z,93.91
2018-08-02T03:27:22.720Z,93.60
2018-08-02T03:29:50.030Z,93.63
2018-08-02T03:32:17.313Z,93.45
2018-08-02T03:34:44.561Z,92.45
2018-08-02T03:37:11.867Z,92.58
2018-08-02T03:39:39.151Z,93.73
2018-08-02T03:42:06.484Z,94.47
2018-08-02T03:44:33.781Z,94.39
2018-08-02T03:47:01.120Z,93.51
2018-08-02T03:49:28.378Z,93.25
2018-08-02T03:51:55.673Z,92.94
2018-08-02T03:54:23.196Z,92.50
2018-08-02T03:56:50.523Z,91.93
2018-08-02T03:59:17.810Z,91.68
2018-08-02T04:01:45.048Z,91.98
2018-08-02T04:04:12.341Z,92.37
2018-08-02T04:06:39.675Z,92.37
2018-08-02T04:09:08.057Z,91.83
2018-08-02T04:11:35.344Z,91.17
2018-08-02T04:14:02.655Z,91.59
2018-08-02T04:16:29.888Z,90.88
2018-08-02T04:18:57.159Z,90.79
2018-08-02T04:21:25.161Z,90.56
2018-08-02T04:23:52.424Z,91.28
2018-08-02T04:26:20.818Z,90.95
2018-08-02T04:28:48.185Z,90.36
2018-08-02T04:31:15.357Z,91.16
2018-08-02T04:33:42.622Z,91.44
2018-08-02T04:36:10.593Z,91.62
2018-08-02T04:38:37.951Z,91.46
2018-08-02T04:41:05.293Z,91.13
2018-08-02T04:43:33.014Z,91.22
2018-08-02T04:46:00.284Z,90.92
2018-08-02T04:48:27.699Z,92.40
2018-08-02T04:50:55.043Z,92.71
2018-08-02T04:53:22.440Z,92.49
2018-08-02T04:55:49.786Z,91.60
2018-08-02T04:58:17.048Z,91.80
2018-08-02T05:00:44.338Z,91.06
2018-08-02T05:03:11.675Z,91.59
2018-08-02T05:05:38.983Z,91.24
2018-08-02T05:08:06.279Z,90.93
2018-08-02T05:10:33.601Z,90.87
2018-08-02T05:13:00.877Z,91.20
2018-08-02T05:15:28.182Z,90.81
2018-08-02T05:17:55.519Z,91.47
2018-08-02T05:20:22.804Z,91.39
2018-08-02T05:22:50.068Z,89.87
2018-08-02T05:25:17.315Z,89.93
2018-08-02T05:27:44.560Z,89.79
2018-08-02T05:30:11.911Z,90.78
2018-08-02T05:32:39.133Z,90.31
2018-08-02T05:35:06.469Z,91.59
2018-08-02T05:37:33.725Z,92.01
2018-08-02T05:40:00.985Z,90.65
2018-08-02T05:42:28.210Z,91.21
2018-08-02T05:44:55.492Z,92.48
2018-08-02T05:47:22.907Z,92.58
2018-08-02T05:49:50.139Z,92.17
2018-08-02T05:52:17.396Z,90.90
2018-08-02T05:54:44.711Z,90.00
2018-08-02T05:57:11.988Z,88.69
2018-08-02T05:59:39.225Z,90.23
2018-08-02T06:02:06.550Z,90.02
2018-08-02T06:04:33.836Z,90.12
2018-08-02T06:07:01.106Z,90.50
2018-08-02T06:09:28.278Z,90.00
2018-08-02T06:11:55.504Z,89.78
2018-08-02T06:14:22.762Z,89.50
2018-08-02T06:16:50.042Z,89.83
2018-08-02T06:19:17.272Z,90.64
2018-08-02T06:21:44.539Z,91.20
2018-08-02T06:24:11.820Z,91.23
2018-08-02T06:26:39.091Z,91.09
2018-08-02T06:29:06.368Z,90.26
2018-08-02T06:31:33.600Z,90.93
2018-08-02T06:34:00.848Z,90.92
2018-08-02T06:36:28.148Z,91.40
2018-08-02T06:38:55.495Z,90.87
2018-08-02T06:41:22.846Z,90.31
2018-08-02T06:43:49.867Z,90.62
2018-08-02T06:46:18.296Z,89.96
2018-08-02T06:48:44.433Z,89.76
2018-08-02T06:51:11.692Z,88.85
2018-08-02T06:53:38.935Z,89.23
2018-08-02T06:56:06.316Z,88.99
2018-08-02T06:58:33.608Z,88.45
2018-08-02T07:01:00.865Z,86.75
2018-08-02T07:03:28.141Z,86.89
2018-08-02T07:05:55.422Z,86.22
2018-08-02T07:08:22.645Z,85.29
2018-08-02T07:10:49.908Z,85.36
2018-08-02T07:13:17.243Z,85.34
2018-08-02T07:15:44.435Z,83.93
2018-08-02T07:18:11.735Z,83.46
2018-08-02T07:20:39.112Z,83.54
2018-08-02T07:23:06.572Z,83.65
2018-08-02T07:25:33.847Z,82.91
2018-08-02T07:28:01.027Z,82.82
2018-08-02T07:30:28.301Z,81.55
2018-08-02T07:32:55.599Z,78.58
2018-08-02T07:35:22.855Z,79.90
2018-08-02T07:37:50.156Z,75.06
2018-08-02T07:40:17.446Z,77.83
2018-08-02T07:42:44.732Z,76.85
2018-08-02T07:45:12.036Z,76.32
2018-08-02T07:47:39.262Z,75.89
2018-08-02T07:50:06.940Z,75.49
2018-08-02T07:52:34.548Z,74.93
2018-08-02T07:55:02.410Z,73.73
2018-08-02T07:57:30.457Z,73.67
2018-08-02T07:59:57.824Z,73.18
2018-08-02T08:02:25.111Z,72.20
2018-08-02T08:04:54.353Z,71.97
2018-08-02T08:07:22.123Z,72.46
2018-08-02T08:09:49.402Z,70.45
2018-08-02T08:12:16.716Z,69.45
2018-08-02T08:14:44.757Z,68.16
2018-08-02T08:17:12.144Z,68.27
2018-08-02T08:19:39.468Z,68.04
2018-08-02T08:22:06.744Z,67.81
2018-08-02T08:24:34.110Z,69.43
2018-08-02T08:27:01.363Z,66.40
2018-08-02T08:29:28.694Z,66.56
2018-08-02T08:31:55.893Z,65.77
2018-08-02T08:34:23.147Z,64.17
2018-08-02T08:36:50.420Z,63.36
2018-08-02T08:39:17.758Z,64.23
2018-08-02T08:41:45.103Z,66.20
2018-08-02T08:44:12.391Z,63.28
2018-08-02T08:46:39.685Z,63.57
2018-08-02T08:49:06.939Z,61.98
2018-08-02T08:51:34.248Z,63.76
2018-08-02T08:54:01.548Z,62.67
2018-08-02T08:56:28.794Z,63.25
2018-08-02T08:59:07.668Z,62.49
2018-08-02T09:01:35.014Z,64.21
2018-08-02T09:04:02.362Z,64.29
2018-08-02T09:06:30.091Z,65.12
2018-08-02T09:08:57.406Z,64.61
2018-08-02T09:11:24.678Z,65.62
2018-08-02T09:13:51.921Z,66.15
2018-08-02T09:16:19.248Z,65.28
2018-08-02T09:18:46.466Z,64.28
2018-08-02T09:21:13.740Z,61.08
2018-08-02T09:23:41.056Z,63.03
2018-08-02T09:26:08.372Z,58.93
2018-08-02T09:28:35.663Z,60.13
2018-08-02T09:31:03.028Z,61.22
2018-08-02T09:33:30.388Z,57.51
2018-08-02T09:35:57.983Z,58.24
2018-08-02T09:38:25.249Z,57.73
2018-08-02T09:40:52.513Z,57.09
2018-08-02T09:43:19.802Z,57.23
2018-08-02T09:45:47.064Z,56.66
2018-08-02T09:48:14.423Z,56.21
2018-08-02T09:50:41.668Z,57.15
2018-08-02T09:53:08.956Z,54.67
2018-08-02T09:55:36.213Z,54.80
2018-08-02T09:58:03.528Z,52.74
2018-08-02T10:00:36.318Z,51.07
2018-08-02T10:03:03.618Z,53.10
2018-08-02T10:05:30.866Z,51.32
2018-08-02T10:07:58.197Z,49.49
2018-08-02T10:10:25.459Z,48.72
2018-08-02T10:12:52.747Z,48.60
2018-08-02T10:15:20.116Z,50.42
2018-08-02T10:17:47.413Z,50.10
2018-08-02T10:20:14.734Z,48.31
2018-08-02T10:22:42.028Z,49.56
2018-08-02T10:25:09.276Z,49.53
2018-08-02T10:27:36.548Z,47.21
2018-08-02T10:30:04.032Z,49.16
2018-08-02T10:32:31.323Z,45.33
2018-08-02T10:34:58.782Z,46.38
2018-08-02T10:37:26.083Z,47.37
2018-08-02T10:39:53.355Z,45.67
2018-08-02T10:42:20.655Z,45.64
2018-08-02T10:44:47.953Z,45.21
2018-08-02T10:47:15.218Z,44.59
2018-08-02T10:49:42.447Z,45.58
2018-08-02T10:52:09.747Z,46.06
2018-08-02T10:54:37.025Z,42.77
2018-08-02T10:57:04.385Z,43.12
2018-08-02T10:59:31.639Z,43.43
2018-08-02T11:01:58.969Z,43.53
2018-08-02T11:04:26.351Z,42.35
2018-08-02T11:06:53.675Z,40.73
2018-08-02T11:09:20.931Z,42.10
2018-08-02T11:11:48.193Z,42.06
2018-08-02T11:14:15.419Z,42.03
2018-08-02T11:16:42.724Z,42.25
2018-08-02T11:19:10.292Z,40.42
2018-08-02T11:21:37.674Z,40.00
2018-08-02T11:24:05.620Z,41.47
2018-08-02T11:26:32.965Z,41.61
2018-08-02T11:29:00.255Z,41.03
2018-08-02T11:31:27.660Z,41.33
2018-08-02T11:33:55.472Z,39.85
2018-08-02T11:36:22.898Z,41.33
2018-08-02T11:38:50.208Z,39.63
2018-08-02T11:41:17.556Z,41.69
2018-08-02T11:43:44.886Z,40.14
2018-08-02T11:46:12.143Z,41.50
2018-08-02T11:48:39.458Z,39.67
2018-08-02T11:51:07.153Z,39.63
2018-08-02T11:53:34.532Z,38.40
2018-08-02T11:56:01.920Z,39.58
2018-08-02T11:58:29.266Z,38.73
2018-08-02T12:00:56.579Z,36.98
2018-08-02T12:03:23.868Z,35.94
2018-08-02T12:05:51.151Z,38.95
2018-08-02T12:08:18.574Z,40.05
2018-08-02T12:10:45.857Z,39.85
2018-08-02T12:13:13.196Z,40.17
2018-08-02T12:15:40.499Z,38.73
2018-08-02T12:18:07.779Z,36.26
2018-08-02T12:20:35.112Z,37.59
2018-08-02T12:23:02.423Z,37.83
2018-08-02T12:25:29.661Z,38.80
2018-08-02T12:27:57.088Z,37.41
2018-08-02T12:30:24.410Z,37.73
2018-08-02T12:32:51.731Z,37.09
2018-08-02T12:35:19.064Z,36.93
2018-08-02T12:37:46.403Z,38.42
2018-08-02T12:40:13.735Z,38.32
2018-08-02T12:42:41.037Z,36.64
2018-08-02T12:45:08.427Z,36.64
2018-08-02T12:47:35.718Z,36.00
2018-08-02T12:50:03.201Z,38.35
2018-08-02T12:52:30.596Z,37.88
2018-08-02T12:54:57.901Z,36.18
2018-08-02T12:57:25.155Z,36.24
2018-08-02T12:59:52.552Z,35.19
2018-08-02T13:02:19.797Z,35.06
2018-08-02T13:04:47.108Z,34.79
2018-08-02T13:07:14.425Z,34.60
2018-08-02T13:09:41.748Z,34.94
2018-08-02T13:12:09.020Z,36.93
2018-08-02T13:14:36.332Z,35.38
2018-08-02T13:17:03.654Z,35.29
2018-08-02T13:19:30.905Z,36.36
2018-08-02T13:21:58.311Z,35.51
2018-08-02T13:24:25.592Z,35.77
2018-08-02T13:26:52.921Z,34.93
2018-08-02T13:29:20.296Z,35.58
2018-08-02T13:31:47.664Z,34.75
2018-08-02T13:34:14.905Z,33.05
2018-08-02T13:36:42.133Z,32.64
2018-08-02T13:39:09.468Z,35.35
2018-08-02T13:41:36.826Z,33.52
2018-08-02T13:44:04.273Z,35.93
2018-08-02T13:46:31.564Z,35.47
2018-08-02T13:48:58.950Z,35.16
2018-08-02T13:51:26.319Z,33.78
2018-08-02T13:53:53.665Z,33.56
2018-08-02T13:56:20.997Z,32.66
2018-08-02T13:58:48.264Z,33.20
2018-08-02T14:01:15.542Z,32.64
2018-08-02T14:03:42.854Z,33.25
2018-08-02T14:06:10.245Z,34.49
2018-08-02T14:08:37.610Z,34.34
2018-08-02T14:11:04.952Z,32.95
2018-08-02T14:13:32.317Z,31.87
2018-08-02T14:15:59.591Z,32.47
2018-08-02T14:18:26.900Z,32.94
2018-08-02T14:20:54.472Z,33.94
2018-08-02T14:23:21.858Z,34.96
2018-08-02T14:25:49.148Z,34.45
2018-08-02T14:28:16.424Z,33.76
2018-08-02T14:30:43.679Z,32.54
2018-08-02T14:33:10.933Z,33.20
2018-08-02T14:35:38.251Z,32.83
2018-08-02T14:38:05.593Z,33.91
2018-08-02T14:40:32.888Z,33.29
2018-08-02T14:43:00.166Z,34.01
2018-08-02T14:45:27.487Z,34.47
2018-08-02T14:47:54.868Z,33.99
2018-08-02T14:50:22.272Z,33.63
2018-08-02T14:52:49.567Z,34.63
2018-08-02T14:55:16.950Z,33.77
2018-08-02T14:57:44.213Z,32.97
2018-08-02T15:00:11.527Z,34.70
2018-08-02T15:02:38.753Z,33.53
2018-08-02T15:05:06.111Z,33.55
2018-08-02T15:07:33.360Z,34.25
2018-08-02T15:10:00.711Z,35.17
2018-08-02T15:12:27.913Z,35.15
2018-08-02T15:14:55.310Z,34.79
2018-08-02T15:17:22.628Z,34.67
2018-08-02T15:19:49.902Z,35.30
2018-08-02T15:22:17.199Z,34.22
2018-08-02T15:24:44.547Z,35.04
2018-08-02T15:27:11.903Z,34.77
2018-08-02T15:29:39.167Z,34.24
2018-08-02T15:32:06.543Z,34.06
2018-08-02T15:34:33.858Z,35.71
2018-08-02T15:37:01.221Z,35.87
2018-08-02T15:39:28.462Z,35.25
2018-08-02T15:41:55.789Z,34.43
2018-08-02T15:44:23.089Z,35.08
2018-08-02T15:46:50.392Z,34.90
2018-08-02T15:49:17.650Z,35.67
2018-08-02T15:51:45.001Z,35.45
2018-08-02T15:54:12.339Z,35.22
2018-08-02T15:56:39.643Z,36.00
2018-08-02T15:59:07.009Z,35.63
2018-08-02T16:01:34.344Z,35.65
2018-08-02T16:04:01.663Z,36.12
2018-08-02T16:06:28.960Z,36.32
2018-08-02T16:08:56.339Z,34.44
2018-08-02T16:11:23.643Z,34.44
2018-08-02T16:13:50.985Z,35.32
2018-08-02T16:16:18.232Z,34.98
2018-08-02T16:18:45.504Z,36.14
2018-08-02T16:21:12.846Z,34.40
2018-08-02T16:23:40.139Z,34.54
2018-08-02T16:26:07.839Z,35.26
2018-08-02T16:28:35.105Z,34.92
2018-08-02T16:31:02.584Z,35.70
2018-08-02T16:33:29.913Z,35.24
2018-08-02T16:35:57.210Z,36.67
2018-08-02T16:38:24.554Z,37.17
2018-08-02T16:40:51.818Z,38.12
2018-08-02T16:43:19.081Z,38.18
2018-08-02T16:45:46.412Z,37.30
2018-08-02T16:48:13.729Z,38.57
2018-08-02T16:50:40.946Z,39.20
2018-08-02T16:53:08.260Z,39.58
2018-08-02T16:55:35.557Z,39.96
2018-08-02T16:58:02.982Z,40.01
2018-08-02T17:00:30.260Z,39.28
2018-08-02T17:02:57.600Z,38.94
2018-08-02T17:05:25.013Z,40.40
2018-08-02T17:07:52.320Z,40.60
2018-08-02T17:10:19.607Z,40.69
2018-08-02T17:12:46.943Z,41.05
2018-08-02T17:15:14.316Z,40.86
2018-08-02T17:17:41.594Z,41.66
2018-08-02T17:20:08.797Z,41.15
2018-08-02T17:22:36.137Z,41.71
2018-08-02T17:25:03.535Z,41.96
2018-08-02T17:27:30.818Z,42.49
2018-08-02T17:29:58.102Z,42.17
2018-08-02T17:32:25.342Z,43.11
2018-08-02T17:34:52.648Z,42.68
2018-08-02T17:37:20.031Z,43.96
2018-08-02T17:39:47.358Z,42.76
2018-08-02T17:42:14.715Z,42.57
2018-08-02T17:44:42.010Z,43.83
2018-08-02T17:47:09.304Z,43.39
2018-08-02T17:49:36.539Z,43.74
2018-08-02T17:52:03.992Z,44.52
2018-08-02T17:54:31.475Z,44.22
2018-08-02T17:56:58.727Z,45.13
2018-08-02T17:59:26.025Z,44.46
2018-08-02T18:01:53.331Z,46.13
2018-08-02T18:04:20.624Z,45.59
2018-08-02T18:06:47.889Z,45.30
2018-08-02T18:09:15.244Z,46.98
2018-08-02T18:11:42.861Z,46.56
2018-08-02T18:14:10.325Z,47.22
2018-08-02T18:16:37.713Z,48.33
2018-08-02T18:19:05.020Z,47.25
2018-08-02T18:21:32.346Z,47.97
2018-08-02T18:23:59.928Z,49.67
2018-08-02T18:26:27.226Z,49.33
2018-08-02T18:28:54.447Z,49.49
2018-08-02T18:31:21.826Z,50.48
2018-08-02T18:33:49.162Z,50.33
2018-08-02T18:36:16.487Z,50.66
2018-08-02T18:38:43.802Z,51.94
2018-08-02T18:41:11.180Z,53.35
2018-08-02T18:43:38.480Z,53.69
2018-08-02T18:46:05.918Z,54.01
2018-08-02T18:48:33.145Z,54.12
2018-08-02T18:51:00.458Z,53.89
2018-08-02T18:53:27.938Z,55.33
2018-08-02T18:55:55.267Z,54.73
2018-08-02T18:58:22.609Z,55.14
2018-08-02T19:00:49.947Z,54.35
2018-08-02T19:03:17.295Z,54.91
2018-08-02T19:05:44.570Z,54.07
2018-08-02T19:08:11.907Z,54.96
2018-08-02T19:10:39.273Z,55.51
2018-08-02T19:13:06.614Z,55.72
2018-08-02T19:15:33.954Z,55.43
2018-08-02T19:18:01.288Z,55.63
2018-08-02T19:20:28.567Z,54.50
2018-08-02T19:22:55.921Z,55.99
2018-08-02T19:25:23.144Z,56.97
2018-08-02T19:27:50.481Z,56.93
2018-08-02T19:30:17.855Z,57.94
2018-08-02T19:32:45.156Z,58.19
2018-08-02T19:35:12.489Z,58.87
2018-08-02T19:37:39.789Z,58.53
2018-08-02T19:40:07.762Z,58.58
2018-08-02T19:42:35.093Z,59.63
2018-08-02T19:45:02.531Z,58.44
2018-08-02T19:47:29.930Z,59.01
2018-08-02T19:49:57.267Z,59.15
2018-08-02T19:52:24.671Z,59.26
2018-08-02T19:54:52.255Z,60.49
2018-08-02T19:57:19.618Z,60.49
2018-08-02T19:59:46.978Z,61.45
2018-08-02T20:02:14.243Z,61.69
2018-08-02T20:04:41.574Z,61.41
2018-08-02T20:07:08.862Z,62.24
2018-08-02T20:09:36.305Z,62.21
2018-08-02T20:12:03.742Z,61.94
2018-08-02T20:14:31.001Z,62.67
2018-08-02T20:16:58.332Z,63.25
2018-08-02T20:19:25.639Z,63.51
2018-08-02T20:21:53.197Z,63.71
2018-08-02T20:24:20.438Z,63.75
2018-08-02T20:26:47.758Z,63.63
2018-08-02T20:29:15.033Z,63.89
2018-08-02T20:31:42.427Z,64.72
2018-08-02T20:34:09.748Z,64.71
2018-08-02T20:36:37.157Z,63.89
2018-08-02T20:39:07.058Z,64.59
2018-08-02T20:41:34.382Z,64.60
2018-08-02T20:44:01.752Z,63.61
2018-08-02T20:46:29.096Z,63.43
2018-08-02T20:48:56.535Z,64.37
2018-08-02T20:51:23.658Z,65.28
2018-08-02T20:53:50.962Z,64.13
2018-08-02T20:56:18.280Z,64.62
2018-08-02T20:58:45.668Z,64.81
2018-08-02T21:01:12.898Z,64.91
2018-08-02T21:03:40.287Z,64.69
2018-08-02T21:06:07.600Z,64.61
2018-08-02T21:08:34.859Z,64.74
2018-08-02T21:11:02.186Z,64.62
2018-08-02T21:13:29.436Z,64.63
2018-08-02T21:15:56.911Z,64.64
2018-08-02T21:18:24.180Z,65.18
2018-08-02T21:20:51.570Z,65.13
2018-08-02T21:23:18.859Z,65.76
2018-08-02T21:25:46.210Z,65.85
2018-08-02T21:28:13.548Z,66.20
2018-08-02T21:30:40.934Z,66.44
2018-08-02T21:33:08.254Z,66.56
2018-08-02T21:35:35.529Z,66.88
2018-08-02T21:38:02.904Z,66.81
2018-08-02T21:40:30.216Z,67.21
2018-08-02T21:42:57.658Z,68.10
2018-08-02T21:45:25.060Z,68.20
2018-08-02T21:47:52.398Z,68.45
2018-08-02T21:50:19.712Z,69.13
2018-08-02T21:52:47.058Z,68.90
2018-08-02T21:55:14.401Z,69.21
2018-08-02T21:57:41.725Z,69.48
2018-08-02T22:00:21.244Z,69.59
2018-08-02T22:02:48.597Z,69.94
2018-08-02T22:05:15.952Z,69.93
2018-08-02T22:07:43.258Z,70.76
2018-08-02T22:10:10.614Z,71.00
2018-08-02T22:12:43.538Z,71.20
2018-08-02T22:15:16.492Z,71.04
2018-08-02T22:17:43.769Z,70.52
2018-08-02T22:20:11.122Z,71.21
2018-08-02T22:22:38.397Z,71.13
2018-08-02T22:25:05.913Z,71.04
2018-08-02T22:27:33.267Z,71.32
2018-08-02T22:30:00.583Z,71.66
2018-08-02T22:32:27.935Z,71.81
2018-08-02T22:34:55.304Z,71.99
2018-08-02T22:37:22.578Z,72.50
2018-08-02T22:39:49.917Z,72.22
2018-08-02T22:42:17.166Z,72.04
2018-08-02T22:44:44.494Z,72.36
2018-08-02T22:47:11.796Z,72.58
2018-08-02T22:49:39.073Z,73.20
2018-08-02T22:52:06.427Z,72.67
2018-08-02T22:54:33.697Z,73.24
2018-08-02T22:57:01.118Z,73.90
2018-08-02T22:59:28.458Z,73.93
2018-08-02T23:01:55.785Z,73.25
2018-08-02T23:04:23.121Z,73.45
2018-08-02T23:06:50.577Z,74.44
2018-08-02T23:09:17.921Z,74.25
2018-08-02T23:11:45.218Z,74.70
2018-08-02T23:14:12.599Z,75.23
2018-08-02T23:16:39.924Z,75.12
2018-08-02T23:19:07.256Z,75.84
2018-08-02T23:21:34.585Z,75.53
2018-08-02T23:24:01.878Z,74.99
2018-08-02T23:26:29.180Z,75.06
2018-08-02T23:28:56.518Z,76.53
2018-08-02T23:31:23.807Z,75.84
2018-08-02T23:33:51.103Z,76.40
2018-08-02T23:36:18.468Z,76.96
2018-08-02T23:38:45.751Z,75.41
2018-08-02T23:41:13.061Z,76.51
2018-08-02T23:43:40.400Z,76.57
2018-08-02T23:46:07.699Z,77.37
2018-08-02T23:48:35.023Z,77.01
2018-08-02T23:51:05.514Z,76.28
2018-08-02T23:53:32.845Z,76.78
2018-08-02T23:56:00.266Z,76.27
2018-08-02T23:58:27.558Z,76.01
